Time;durP1;ratioP1;P1;durP2;ratioP2;P2;SDS_P1;SDS_P2;PMS_P1;PMS_P2;Temp;Humidity;BMP_temperature;BMP_pressure;BME280_temperature;BME280_humidity;BME280_pressure;Samples;Min_cycle;Max_cycle;Signal;HPM_P1;HPM_P2
2022/09/21 00:01:12;;;;;;;4.15;3.67;;;;;;;10.72;95.65;101393.28;4939558;29;20039;-78
2022/09/21 00:03:40;;;;;;;4.40;4.00;;;;;;;10.73;94.94;101395.94;4948206;29;20063;-78
2022/09/21 00:06:10;;;;;;;5.38;4.18;;;;;;;10.71;94.42;101399.44;4947483;29;20800;-77
2022/09/21 00:08:36;;;;;;;5.63;3.83;;;;;;;10.64;94.68;101398.50;4947415;29;20035;-78
2022/09/21 00:11:02;;;;;;;7.00;3.85;;;;;;;10.61;94.96;101400.22;4945442;29;20044;-78
2022/09/21 00:13:28;;;;;;;4.30;3.47;;;;;;;10.59;94.91;101404.63;4947084;29;20044;-78
2022/09/21 00:15:54;;;;;;;4.10;3.65;;;;;;;10.50;95.75;101400.16;4941733;29;20503;-78
2022/09/21 00:18:20;;;;;;;5.90;3.70;;;;;;;10.53;95.49;101403.72;4959986;29;20028;-78
2022/09/21 00:20:46;;;;;;;4.70;3.72;;;;;;;10.53;95.70;101403.72;4944157;29;20050;-78
2022/09/21 00:23:11;;;;;;;5.35;3.72;;;;;;;10.51;95.90;101402.81;4944484;29;20076;-78
2022/09/21 00:25:37;;;;;;;3.90;3.50;;;;;;;10.49;96.21;101401.91;4938222;29;20040;-78
2022/09/21 00:28:02;;;;;;;5.47;4.00;;;;;;;10.46;95.95;101401.88;4941292;29;20032;-78
2022/09/21 00:30:27;;;;;;;4.32;3.47;;;;;;;10.44;96.15;101408.03;4943566;29;20039;-78
2022/09/21 00:32:52;;;;;;;7.57;3.80;;;;;;;10.44;96.57;101415.94;4936747;29;20058;-78
2022/09/21 00:35:18;;;;;;;4.78;4.20;;;;;;;10.31;96.37;101414.94;4938714;29;20050;-78
2022/09/21 00:37:43;;;;;;;5.22;3.75;;;;;;;10.24;96.96;101411.34;4937697;29;20036;-77
2022/09/21 00:40:09;;;;;;;4.72;3.72;;;;;;;10.15;97.63;101413.00;4936856;29;20044;-78
2022/09/21 00:42:35;;;;;;;4.13;3.35;;;;;;;10.09;98.43;101409.44;4938369;29;20046;-78
2022/09/21 00:45:01;;;;;;;4.13;3.72;;;;;;;9.98;99.33;101412.81;4936089;29;20103;-78
2022/09/21 00:47:32;;;;;;;5.25;3.95;;;;;;;9.96;100.00;101418.09;4938821;29;20036;-78
2022/09/21 00:49:59;;;;;;;5.18;3.97;;;;;;;10.00;100.00;101417.25;4937202;29;20040;-77
2022/09/21 00:52:27;;;;;;;5.50;4.10;;;;;;;10.03;99.50;101414.66;4945899;29;20028;-78
2022/09/21 00:54:56;;;;;;;5.95;3.67;;;;;;;9.99;99.80;101418.13;4940628;29;20068;-78
2022/09/21 00:57:25;;;;;;;4.38;3.53;;;;;;;10.00;99.86;101419.00;4937653;29;20036;-77
2022/09/21 00:59:54;;;;;;;6.38;3.92;;;;;;;9.94;99.79;101417.19;4938835;29;20031;-77
2022/09/21 01:02:20;;;;;;;5.00;3.80;;;;;;;9.94;99.78;101417.19;4957459;29;20483;-78
2022/09/21 01:04:46;;;;;;;5.13;4.20;;;;;;;9.92;99.87;101418.91;4940544;29;20478;-78
2022/09/21 01:07:19;;;;;;;5.85;4.47;;;;;;;9.93;99.91;101418.06;4942759;29;20032;-78
2022/09/21 01:09:51;;;;;;;4.20;3.80;;;;;;;9.96;99.81;101423.38;4943050;29;20036;-78
2022/09/21 01:12:40;;;;;;;4.47;3.92;;;;;;;9.93;100.00;101417.16;4941611;29;20047;-78
2022/09/21 01:15:21;;;;;;;5.38;3.83;;;;;;;9.96;100.00;101418.09;4944144;29;20046;-77
2022/09/21 01:18:11;;;;;;;4.70;3.93;;;;;;;9.96;100.00;101418.09;4942172;29;20047;-77
2022/09/21 01:21:05;;;;;;;6.20;3.92;;;;;;;9.97;100.00;101422.50;4944231;29;20040;-78
2022/09/21 01:23:52;;;;;;;4.55;3.88;;;;;;;9.99;100.00;101425.16;4941702;29;20034;-78
2022/09/21 01:26:45;;;;;;;4.88;3.47;;;;;;;10.06;99.96;101429.59;4941956;29;20036;-77
2022/09/21 01:29:19;;;;;;;;;;;;;;;10.05;100.00;101438.41;4942407;29;20554;-78
2022/09/21 01:32:17;;;;;;;6.47;3.97;;;;;;;10.13;99.78;101427.94;4959007;28;19915;-78
2022/09/21 01:35:00;;;;;;;9.20;4.50;;;;;;;10.15;99.49;101426.19;4918540;29;20071;-77
2022/09/21 01:37:50;;;;;;;4.82;3.83;;;;;;;10.10;98.99;101426.16;4939612;29;20084;-78
2022/09/21 01:40:20;;;;;;;4.80;3.92;;;;;;;10.14;99.48;101430.59;4944982;29;20060;-77
2022/09/21 01:42:48;;;;;;;7.93;3.92;;;;;;;10.18;99.04;101431.50;4954044;28;20071;-78
2022/09/21 01:45:20;;;;;;;4.72;3.72;;;;;;;10.21;99.05;101434.16;4940953;29;20039;-78
2022/09/21 01:47:48;;;;;;;4.85;4.43;;;;;;;10.22;99.02;101431.56;4940486;29;20055;-78
2022/09/21 01:50:22;;;;;;;6.80;4.65;;;;;;;10.15;99.10;101434.13;4941595;29;20038;-77
2022/09/21 01:53:12;;;;;;;4.75;4.25;;;;;;;10.18;98.92;101429.75;4943686;29;20040;-78
2022/09/21 01:55:50;;;;;;;4.15;3.75;;;;;;;10.12;99.44;101434.97;4958708;28;20044;-78
2022/09/21 01:58:26;;;;;;;8.65;4.28;;;;;;;10.10;99.55;101436.69;4942715;29;20043;-78
2022/09/21 02:00:55;;;;;;;4.55;3.83;;;;;;;10.13;99.92;101442.00;4943791;29;20064;-78
2022/09/21 02:03:25;;;;;;;5.00;4.13;;;;;;;10.12;99.79;101439.38;4944216;29;20035;-78
2022/09/21 02:05:51;;;;;;;4.45;3.78;;;;;;;10.09;99.62;101445.50;4955186;28;20032;-78
2022/09/21 02:08:16;;;;;;;6.40;3.80;;;;;;;10.07;99.35;101448.09;4945418;29;20147;-78
2022/09/21 02:10:47;;;;;;;5.60;4.20;;;;;;;10.03;100.00;101441.03;4937323;29;20024;-78
2022/09/21 02:13:15;;;;;;;4.82;3.63;;;;;;;9.98;100.00;101442.75;4958379;29;20036;-77
2022/09/21 02:15:57;;;;;;;8.32;4.15;;;;;;;9.89;100.00;101440.00;4942673;29;20048;-78
2022/09/21 02:18:56;;;;;;;6.07;3.97;;;;;;;9.84;100.00;101445.19;4925507;29;20040;-77
2022/09/21 02:21:49;;;;;;;5.47;4.18;;;;;;;9.85;100.00;101451.34;4947692;29;20052;-78
2022/09/21 02:24:36;;;;;;;5.47;4.25;;;;;;;9.89;100.00;101442.63;4943983;29;20035;-77
2022/09/21 02:27:27;;;;;;;4.82;4.07;;;;;;;9.91;100.00;101446.16;4943513;29;20063;-78
2022/09/21 02:30:16;;;;;;;5.05;3.67;;;;;;;9.94;100.00;101455.88;4944369;29;20059;-77
2022/09/21 02:32:56;;;;;;;7.30;3.92;;;;;;;9.92;100.00;101452.31;4938883;29;20044;-78
2022/09/21 02:35:36;;;;;;;6.28;4.05;;;;;;;9.86;100.00;101453.16;4941625;29;20125;-78
2022/09/21 02:38:19;;;;;;;4.63;3.63;;;;;;;9.88;100.00;101444.38;4936605;29;20153;-77
2022/09/21 02:41:00;;;;;;;9.13;4.68;;;;;;;9.92;100.00;101449.69;4938222;29;20139;-77
2022/09/21 02:43:33;;;;;;;5.22;4.47;;;;;;;9.93;100.00;101455.00;4953250;29;20075;-78
2022/09/21 02:46:05;;;;;;;4.55;4.05;;;;;;;9.94;100.00;101446.19;4938243;29;20038;-78
2022/09/21 02:48:40;;;;;;;4.13;3.72;;;;;;;9.92;100.00;101453.19;4946092;29;20059;-78
2022/09/21 02:51:10;;;;;;;6.05;4.20;;;;;;;9.88;100.00;101444.38;4942326;29;20491;-78
2022/09/21 02:53:38;;;;;;;4.43;3.90;;;;;;;9.86;100.00;101453.16;4939986;29;20616;-77
2022/09/21 02:56:06;;;;;;;4.88;4.38;;;;;;;9.81;100.00;101457.47;4939544;29;20043;-77
2022/09/21 02:58:38;;;;;;;4.43;4.03;;;;;;;9.77;100.00;101468.84;4939945;29;20123;-78
2022/09/21 03:01:07;;;;;;;9.98;4.30;;;;;;;9.66;100.00;101459.03;4945952;29;20044;-77
2022/09/21 03:03:33;;;;;;;5.85;4.38;;;;;;;9.60;100.00;101466.00;4937952;29;20035;-77
2022/09/21 03:05:59;;;;;;;4.70;4.30;;;;;;;9.47;100.00;101459.69;4954620;28;20043;-78
2022/09/21 03:08:24;;;;;;;5.10;3.83;;;;;;;9.34;100.00;101463.03;4941339;29;20115;-77
2022/09/21 03:10:50;;;;;;;5.00;4.50;;;;;;;9.21;100.00;101473.38;4938888;29;20123;-77
2022/09/21 03:13:17;;;;;;;8.02;4.20;;;;;;;9.10;100.00;101474.97;4940641;29;20044;-78
2022/09/21 03:15:44;;;;;;;5.35;4.22;;;;;;;8.99;100.00;101471.31;4952956;29;20028;-77
2022/09/21 03:18:10;;;;;;;5.28;4.35;;;;;;;8.91;100.00;101478.22;4943162;29;20087;-77
2022/09/21 03:20:37;;;;;;;5.65;4.75;;;;;;;8.85;100.00;101472.81;4940208;29;20039;-77
2022/09/21 03:23:03;;;;;;;9.73;4.57;;;;;;;8.76;100.00;101479.72;4958212;28;20048;-77
2022/09/21 03:25:29;;;;;;;5.30;4.78;;;;;;;8.69;100.00;101480.47;4938246;29;20059;-78
2022/09/21 03:27:55;;;;;;;6.50;5.00;;;;;;;8.64;100.00;101481.25;4932533;29;20043;-78
2022/09/21 03:30:22;;;;;;;8.02;4.50;;;;;;;8.60;100.00;101482.97;4938322;29;20040;-77
2022/09/21 03:32:52;;;;;;;9.35;4.80;;;;;;;8.56;100.00;101481.13;4936823;29;20095;-78
2022/09/21 03:35:20;;;;;;;9.75;5.13;;;;;;;8.49;100.00;101479.25;4938034;29;20474;-77
2022/09/21 03:37:46;;;;;;;6.30;4.47;;;;;;;8.41;100.00;101478.22;4934877;29;20040;-77
2022/09/21 03:40:11;;;;;;;7.53;5.25;;;;;;;8.36;100.00;101491.28;4937743;29;20075;-77
2022/09/21 03:42:38;;;;;;;7.47;5.22;;;;;;;8.29;100.00;101492.88;4938180;29;20044;-78
2022/09/21 03:45:04;;;;;;;5.80;4.78;;;;;;;8.27;100.00;101494.59;4942093;29;20131;-77
2022/09/21 03:47:29;;;;;;;7.97;5.35;;;;;;;8.24;100.00;101499.81;4948830;29;20059;-78
2022/09/21 03:49:55;;;;;;;7.10;5.28;;;;;;;8.21;100.00;101486.59;4936438;29;20036;-77
2022/09/21 03:52:20;;;;;;;7.03;5.00;;;;;;;8.15;100.00;101491.75;4940561;29;20455;-78
2022/09/21 03:54:45;;;;;;;6.70;5.03;;;;;;;8.11;100.00;101487.28;4935375;29;20507;-77
2022/09/21 03:57:11;;;;;;;8.68;5.97;;;;;;;8.08;100.00;101492.50;4937965;29;20047;-77
2022/09/21 03:59:36;;;;;;;7.03;5.28;;;;;;;8.01;100.00;101488.84;4953774;29;20020;-78
2022/09/21 04:02:01;;;;;;;9.35;6.60;;;;;;;7.95;100.00;101490.47;4940644;29;20036;-78
2022/09/21 04:04:27;;;;;;;7.20;5.30;;;;;;;7.89;100.00;101492.13;4936819;29;20099;-77
2022/09/21 04:06:52;;;;;;;6.35;5.07;;;;;;;7.83;100.00;101497.28;4939547;29;20098;-78
2022/09/21 04:09:17;;;;;;;7.57;5.30;;;;;;;7.79;100.00;101492.78;4953237;29;20040;-77
2022/09/21 04:11:47;;;;;;;6.13;5.25;;;;;;;7.78;100.00;101501.53;4939559;29;20040;-77
2022/09/21 04:14:12;;;;;;;9.13;5.28;;;;;;;7.75;100.00;101498.81;4938199;29;20058;-77
2022/09/21 04:16:38;;;;;;;6.18;5.53;;;;;;;7.64;100.00;101501.22;4940725;29;20122;-78
2022/09/21 04:19:03;;;;;;;8.27;4.95;;;;;;;7.60;100.00;101509.91;4938039;29;20040;-77
2022/09/21 04:21:28;;;;;;;6.00;4.55;;;;;;;7.56;100.00;101508.06;4955783;28;20046;-78
2022/09/21 04:23:54;;;;;;;8.27;5.13;;;;;;;7.50;100.00;101515.81;4935284;29;20035;-77
2022/09/21 04:26:22;;;;;;;7.30;5.30;;;;;;;7.44;100.00;101516.56;4935380;29;20086;-78
2022/09/21 04:28:48;;;;;;;6.32;5.25;;;;;;;7.41;100.00;101513.88;4942378;29;20024;-78
2022/09/21 04:31:13;;;;;;;5.90;5.00;;;;;;;7.38;100.00;101508.53;4942048;29;20040;-78
2022/09/21 04:33:40;;;;;;;6.35;5.32;;;;;;;7.39;100.00;101509.44;4943711;29;20079;-78
2022/09/21 04:36:05;;;;;;;9.80;6.03;;;;;;;7.38;100.00;101513.78;4941627;29;20546;-78
2022/09/21 04:38:31;;;;;;;7.90;5.15;;;;;;;7.37;100.00;101512.03;4946185;29;20038;-77
2022/09/21 04:40:57;;;;;;;13.82;6.70;;;;;;;7.35;100.00;101515.47;4945619;29;20042;-79
2022/09/21 04:43:22;;;;;;;10.00;6.25;;;;;;;7.33;100.00;101515.41;4949183;29;20107;-77
2022/09/21 04:45:47;;;;;;;6.75;5.97;;;;;;;7.31;100.00;101522.41;4942512;29;20040;-78
2022/09/21 04:48:13;;;;;;;9.05;6.40;;;;;;;7.31;100.00;101526.75;4942398;29;20533;-77
2022/09/21 04:50:38;;;;;;;6.38;5.43;;;;;;;7.27;100.00;101524.91;4937009;29;20091;-77
2022/09/21 04:53:06;;;;;;;11.40;6.50;;;;;;;7.27;100.00;101524.91;4941648;29;20058;-77
2022/09/21 04:55:32;;;;;;;8.45;6.03;;;;;;;7.25;100.00;101533.63;4940100;29;20040;-77
2022/09/21 04:57:57;;;;;;;7.80;6.18;;;;;;;7.24;100.00;101534.50;4936431;29;20051;-78
2022/09/21 05:00:22;;;;;;;8.77;6.43;;;;;;;7.24;100.00;101528.34;4949520;29;20031;-78
2022/09/21 05:02:48;;;;;;;21.38;15.00;;;;;;;7.24;100.00;101541.50;4949670;29;20092;-78
2022/09/21 05:05:13;;;;;;;11.07;7.07;;;;;;;7.24;100.00;101538.88;4941770;29;20043;-78
2022/09/21 05:07:38;;;;;;;8.32;6.35;;;;;;;7.22;100.00;101543.19;4942379;29;20483;-79
2022/09/21 05:10:04;;;;;;;9.65;6.35;;;;;;;7.23;100.00;101544.94;4941122;29;20494;-78
2022/09/21 05:12:32;;;;;;;9.20;6.40;;;;;;;7.25;100.00;101548.50;4956802;28;20040;-79
2022/09/21 05:14:57;;;;;;;12.30;6.80;;;;;;;7.29;100.00;101546.84;4941400;29;20039;-78
2022/09/21 05:17:23;;;;;;;12.00;6.50;;;;;;;7.30;100.00;101552.13;4941665;29;20066;-78
2022/09/21 05:19:49;;;;;;;11.98;8.43;;;;;;;7.33;100.00;101554.81;4940934;29;20569;-78
2022/09/21 05:22:15;;;;;;;8.27;5.70;;;;;;;7.34;100.00;101553.97;4944962;29;20036;-79
2022/09/21 05:24:40;;;;;;;11.15;6.45;;;;;;;7.35;100.00;101560.13;4935110;29;20042;-79
2022/09/21 05:27:05;;;;;;;9.77;5.93;;;;;;;7.37;100.00;101563.69;4936625;29;20506;-79
2022/09/21 05:29:31;;;;;;;10.05;5.90;;;;;;;7.36;100.00;101564.50;4933732;29;20134;-79
2022/09/21 05:32:19;;;;;;;10.00;6.53;;;;;;;7.39;100.00;101562.88;4937067;29;20039;-78
2022/09/21 05:35:12;;;;;;;12.82;7.10;;;;;;;7.42;100.00;101567.28;4937399;29;20075;-78
2022/09/21 05:37:57;;;;;;;10.43;6.43;;;;;;;7.47;100.00;101568.28;4939498;29;20036;-79
2022/09/21 05:40:23;;;;;;;8.57;6.90;;;;;;;7.54;100.00;101564.06;4942762;29;20061;-79
2022/09/21 05:42:48;;;;;;;9.43;6.60;;;;;;;7.58;100.00;101565.91;4942249;29;20051;-79
2022/09/21 05:45:16;;;;;;;7.32;6.63;;;;;;;7.63;100.00;101569.53;4943106;29;20182;-79
2022/09/21 05:47:59;;;;;;;7.75;5.95;;;;;;;7.71;100.00;101570.59;4941442;29;20038;-79
2022/09/21 05:50:37;;;;;;;8.73;6.68;;;;;;;7.75;100.00;101572.41;4938370;29;20044;-79
2022/09/21 05:53:21;;;;;;;9.95;7.10;;;;;;;7.80;100.00;101578.66;4940401;29;20051;-79
2022/09/21 05:55:58;;;;;;;9.45;6.80;;;;;;;7.90;100.00;101583.25;4937820;29;20160;-78
2022/09/21 05:58:34;;;;;;;8.15;6.22;;;;;;;7.96;100.00;101584.25;4938647;29;20050;-79
2022/09/21 06:01:12;;;;;;;11.63;6.35;;;;;;;8.01;100.00;101586.09;4957191;29;20502;-79
2022/09/21 06:03:40;;;;;;;14.23;7.50;;;;;;;8.02;100.00;101587.03;4941306;29;20047;-79
2022/09/21 06:06:07;;;;;;;8.95;7.15;;;;;;;8.06;100.00;101583.59;4938220;29;20040;-79
2022/09/21 06:08:32;;;;;;;13.30;7.07;;;;;;;8.08;100.00;101581.88;4952566;29;20061;-78
2022/09/21 06:10:57;;;;;;;7.07;6.38;;;;;;;8.14;100.00;101582.00;4943891;29;20028;-79
2022/09/21 06:13:23;;;;;;;10.05;6.88;;;;;;;8.22;100.00;101583.03;4939810;29;20494;-79
2022/09/21 06:15:48;;;;;;;14.68;7.50;;;;;;;8.28;100.00;101591.06;4937763;29;20040;-79
2022/09/21 06:18:13;;;;;;;12.02;7.45;;;;;;;8.34;100.00;101590.31;4938841;29;20050;-79
2022/09/21 06:20:39;;;;;;;9.52;6.57;;;;;;;8.37;100.00;101589.47;4937562;29;20040;-78
2022/09/21 06:23:07;;;;;;;9.00;7.07;;;;;;;8.44;100.00;101594.03;4939434;29;20046;-79
2022/09/21 06:25:33;;;;;;;10.98;6.47;;;;;;;8.48;100.00;101587.97;4946754;29;20079;-79
2022/09/21 06:28:07;;;;;;;15.18;8.13;;;;;;;8.54;100.00;101590.72;4937410;29;20027;-79
2022/09/21 06:30:33;;;;;;;10.68;7.45;;;;;;;8.64;100.00;101594.41;4937914;29;20040;-79
2022/09/21 06:33:04;;;;;;;12.43;8.48;;;;;;;8.68;100.00;101596.25;4938690;29;20047;-79
2022/09/21 06:35:30;;;;;;;8.60;7.65;;;;;;;8.72;100.00;101584.91;4951400;29;20036;-79
2022/09/21 06:38:00;;;;;;;9.45;8.05;;;;;;;8.76;100.00;101597.28;4955567;28;20110;-79
2022/09/21 06:40:30;;;;;;;12.95;8.57;;;;;;;8.78;100.00;101587.66;4939338;28;20494;-79
2022/09/21 06:43:00;;;;;;;12.25;8.27;;;;;;;8.80;100.00;101590.31;4935145;29;20035;-78
2022/09/21 06:45:26;;;;;;;13.52;8.73;;;;;;;8.85;100.00;101588.66;4936450;29;20051;-79
2022/09/21 06:47:52;;;;;;;10.25;8.00;;;;;;;8.92;100.00;101595.81;4939206;29;20035;-79
2022/09/21 06:50:17;;;;;;;14.55;7.47;;;;;;;8.98;100.00;101588.00;4939433;29;20064;-80
2022/09/21 06:52:43;;;;;;;11.98;8.70;;;;;;;9.01;100.00;101593.31;4941030;29;20518;-79
2022/09/21 06:55:09;;;;;;;10.48;7.28;;;;;;;9.04;100.00;101595.13;4942220;29;20035;-79
2022/09/21 06:57:36;;;;;;;11.25;7.40;;;;;;;9.09;100.00;101597.00;4943392;29;20091;-79
2022/09/21 07:00:01;;;;;;;8.57;7.68;;;;;;;9.17;100.00;101592.75;4936919;29;20040;-79
2022/09/21 07:02:26;;;;;;;15.90;8.48;;;;;;;9.26;100.00;101594.63;4940295;29;20082;-79
2022/09/21 07:04:52;;;;;;;11.23;8.70;;;;;;;9.34;100.00;101600.03;4944186;28;20043;-79
2022/09/21 07:07:17;;;;;;;10.48;8.85;;;;;;;9.38;100.00;101609.75;4934059;29;20043;-79
2022/09/21 07:09:43;;;;;;;15.52;9.90;;;;;;;9.50;100.00;101609.94;4939879;29;20099;-79
2022/09/21 07:12:08;;;;;;;14.00;8.00;;;;;;;9.58;100.00;101615.31;4935170;29;20040;-79
2022/09/21 07:14:34;;;;;;;11.00;7.72;;;;;;;9.65;100.00;101614.56;4939135;29;20036;-79
2022/09/21 07:16:59;;;;;;;11.75;8.82;;;;;;;9.65;100.00;101610.16;4936674;29;20051;-79
2022/09/21 07:19:24;;;;;;;8.20;7.40;;;;;;;9.78;100.00;101620.91;4938718;29;20046;-79
2022/09/21 07:21:53;;;;;;;13.60;7.22;;;;;;;9.79;100.00;101618.25;4940006;29;20048;-79
2022/09/21 07:24:18;;;;;;;9.25;8.00;;;;;;;9.80;100.00;101621.81;4931419;29;20098;-79
2022/09/21 07:26:43;;;;;;;12.68;6.93;;;;;;;9.86;100.00;101619.25;4934592;29;20175;-79
2022/09/21 07:29:09;;;;;;;12.23;7.00;;;;;;;9.92;100.00;101616.69;4943427;29;20123;-79
2022/09/21 07:31:34;;;;;;;12.25;7.03;;;;;;;9.99;100.00;101623.84;4941907;29;20109;-79
2022/09/21 07:33:59;;;;;;;11.35;8.05;;;;;;;10.05;100.00;101623.91;4953530;29;20541;-79
2022/09/21 07:36:25;;;;;;;13.50;6.95;;;;;;;10.14;100.00;101619.63;4938630;29;20644;-80
2022/09/21 07:38:52;;;;;;;8.32;7.22;;;;;;;10.19;100.00;101625.84;4941629;29;20547;-78
2022/09/21 07:41:18;;;;;;;9.98;7.75;;;;;;;10.26;99.58;101625.94;4940898;29;20046;-79
2022/09/21 07:43:43;;;;;;;12.75;7.60;;;;;;;10.36;99.58;101626.09;4958661;29;20043;-79
2022/09/21 07:46:11;;;;;;;9.70;7.30;;;;;;;10.48;98.57;101627.13;4937963;29;20091;-79
2022/09/21 07:48:36;;;;;;;9.85;7.50;;;;;;;10.59;97.93;101629.91;4937019;29;20098;-79
2022/09/21 07:51:05;;;;;;;8.98;7.03;;;;;;;10.71;98.32;101621.22;4923428;29;20059;-80
2022/09/21 07:53:31;;;;;;;8.65;7.72;;;;;;;10.79;96.66;101630.09;4941605;29;20051;-79
2022/09/21 07:56:01;;;;;;;11.23;7.75;;;;;;;10.85;96.47;101624.91;4942614;29;20047;-78
2022/09/21 08:01:11;;;;;;;10.77;8.55;;;;;;;10.93;96.65;101617.06;4942589;29;20514;-79
2022/09/21 08:03:37;;;;;;;8.75;7.85;;;;;;;11.01;96.86;101620.66;4942066;29;20068;-79
2022/09/21 08:06:03;;;;;;;10.00;8.50;;;;;;;11.01;94.46;101630.34;4942544;29;20510;-78
2022/09/21 08:08:28;;;;;;;12.30;9.35;;;;;;;11.04;95.76;101625.06;4943473;29;20527;-79
2022/09/21 08:10:54;;;;;;;11.60;8.02;;;;;;;11.14;95.35;101629.56;4943088;29;20119;-79
2022/09/21 08:13:20;;;;;;;11.38;8.27;;;;;;;11.23;95.58;101632.28;4937241;29;20173;-79
2022/09/21 08:15:46;;;;;;;11.07;8.90;;;;;;;11.31;94.68;101627.06;4936403;29;20047;-79
2022/09/21 08:18:11;;;;;;;8.80;7.53;;;;;;;11.41;94.43;101632.44;4937738;29;20149;-79
2022/09/21 08:20:37;;;;;;;11.93;8.30;;;;;;;11.46;94.10;101628.97;4934544;29;20084;-79
2022/09/21 08:23:03;;;;;;;10.15;8.57;;;;;;;11.65;94.60;101622.91;4937827;29;20036;-79
2022/09/21 08:25:29;;;;;;;14.13;8.85;;;;;;;11.77;93.44;101624.78;4936794;29;20106;-79
2022/09/21 08:27:58;;;;;;;16.83;9.25;;;;;;;11.86;92.53;101624.84;4934351;29;20488;-79
2022/09/21 08:30:26;;;;;;;11.82;7.47;;;;;;;11.98;92.40;101627.56;4935071;29;20042;-80
2022/09/21 08:32:53;;;;;;;10.27;6.95;;;;;;;12.03;90.93;101627.59;4931562;29;20435;-79
2022/09/21 08:35:18;;;;;;;11.23;7.95;;;;;;;12.14;91.72;101625.00;4936540;29;20071;-79
2022/09/21 08:37:44;;;;;;;8.23;7.30;;;;;;;12.13;90.46;101632.06;4932661;29;20081;-79
2022/09/21 08:40:11;;;;;;;11.23;7.28;;;;;;;12.19;91.11;101629.44;4936460;29;20043;-79
2022/09/21 08:43:06;;;;;;;10.55;6.90;;;;;;;12.17;89.82;101633.84;4937314;29;20119;-79
2022/09/21 08:45:36;;;;;;;10.27;7.07;;;;;;;12.02;89.98;101629.34;4931882;29;20082;-80
2022/09/21 08:48:09;;;;;;;9.32;6.35;;;;;;;12.17;89.25;101628.53;4936046;29;20043;-79
2022/09/21 08:50:41;;;;;;;11.13;6.45;;;;;;;12.37;89.35;101630.41;4940818;29;20043;-80
2022/09/21 08:53:17;;;;;;;8.63;6.73;;;;;;;12.53;88.40;101629.59;4941128;29;20063;-80
2022/09/21 08:55:42;;;;;;;7.57;6.78;;;;;;;12.50;87.40;101629.59;4948029;29;20291;-79
2022/09/21 08:58:28;;;;;;;8.02;6.35;;;;;;;12.66;87.58;101631.38;4953675;29;20044;-79
2022/09/21 09:01:18;;;;;;;8.57;5.82;;;;;;;12.81;86.96;101634.94;4956162;29;20040;-79
2022/09/21 09:04:26;;;;;;;9.27;6.03;;;;;;;12.89;84.28;101625.25;4947114;29;20046;-79
2022/09/21 09:07:03;;;;;;;7.53;6.40;;;;;;;12.90;85.37;101634.97;4945873;29;20043;-79
2022/09/21 09:09:28;;;;;;;9.32;6.20;;;;;;;12.96;85.40;101626.16;4946978;29;20032;-80
2022/09/21 09:12:22;;;;;;;7.32;6.63;;;;;;;12.96;85.76;101628.81;4946784;29;20048;-79
2022/09/21 09:15:02;;;;;;;6.07;5.38;;;;;;;13.01;84.56;101622.63;4943263;29;20047;-79
2022/09/21 09:17:33;;;;;;;7.97;6.40;;;;;;;13.25;84.20;101631.47;4948961;29;20064;-79
2022/09/21 09:20:06;;;;;;;7.80;6.65;;;;;;;13.33;82.00;101624.44;4943969;29;20039;-80
2022/09/21 09:22:39;;;;;;;9.45;6.72;;;;;;;13.58;82.60;101628.84;4951748;29;20423;-80
2022/09/21 09:25:15;;;;;;;9.77;6.65;;;;;;;13.91;81.48;101627.03;4945123;29;20419;-79
2022/09/21 09:27:43;;;;;;;20.20;12.77;;;;;;;14.05;81.09;101626.13;4949274;29;20046;-80
2022/09/21 09:30:23;;;;;;;11.80;6.30;;;;;;;14.18;79.54;101622.53;4948019;29;20032;-80
2022/09/21 09:33:19;;;;;;;7.30;5.88;;;;;;;14.35;78.08;101618.00;4944159;29;20120;-80
2022/09/21 09:35:48;;;;;;;7.82;7.07;;;;;;;14.28;77.32;101626.91;4944158;29;20312;-80
2022/09/21 09:38:24;;;;;;;8.18;6.65;;;;;;;14.15;77.37;101620.75;4943221;29;20036;-79
2022/09/21 09:41:18;;;;;;;10.75;6.65;;;;;;;14.27;79.05;101617.16;4945273;29;20040;-79
2022/09/21 09:44:20;;;;;;;7.63;5.82;;;;;;;14.56;77.88;101613.53;4942962;29;20032;-81
2022/09/21 09:47:12;;;;;;;11.95;6.80;;;;;;;14.48;76.93;101609.09;4949750;29;20043;-79
2022/09/21 09:49:54;;;;;;;10.50;5.75;;;;;;;14.54;76.57;101602.03;4949995;29;20064;-80
2022/09/21 09:52:19;;;;;;;7.55;5.78;;;;;;;14.77;77.08;101608.06;4949911;29;20035;-79
2022/09/21 09:54:44;;;;;;;6.95;6.18;;;;;;;14.93;74.78;101605.31;4957870;29;20067;-80
2022/09/21 09:57:11;;;;;;;7.10;6.40;;;;;;;15.04;74.18;101608.81;4961234;29;20071;-80
2022/09/21 09:59:43;;;;;;;7.10;6.40;;;;;;;15.02;73.48;101607.94;4947265;29;20059;-80
2022/09/21 10:02:20;;;;;;;6.80;6.20;;;;;;;15.32;73.39;101605.00;4947641;29;20128;-81
2022/09/21 10:05:07;;;;;;;9.43;6.82;;;;;;;15.63;71.01;101594.09;4945261;29;20056;-78
2022/09/21 10:07:39;;;;;;;6.57;6.00;;;;;;;15.98;70.23;101598.16;4951042;29;20035;-79
2022/09/21 10:10:31;;;;;;;6.50;5.60;;;;;;;16.08;66.13;101588.31;4947327;29;20051;-79
2022/09/21 10:13:12;;;;;;;;;;;;;;;16.09;68.52;101593.63;4945352;29;20050;-79
2022/09/21 10:15:43;;;;;;;6.28;5.72;;;;;;;16.08;66.57;101594.50;4961171;29;19918;-78
2022/09/21 10:18:22;;;;;;;7.45;5.85;;;;;;;16.14;66.53;101591.78;4947178;29;20729;-80
2022/09/21 10:21:06;;;;;;;9.10;5.45;;;;;;;16.05;67.67;101589.22;4959140;28;20099;-79
2022/09/21 10:23:33;;;;;;;6.38;5.78;;;;;;;16.14;66.82;101589.13;4947228;29;20477;-80
2022/09/21 10:26:06;;;;;;;5.60;5.05;;;;;;;16.10;66.02;101597.16;4949802;29;20023;-79
2022/09/21 10:28:32;;;;;;;6.00;5.40;;;;;;;16.09;67.07;101588.28;4966622;28;20036;-79
2022/09/21 10:31:08;;;;;;;6.00;5.50;;;;;;;15.96;67.28;101578.69;4951333;29;20039;-79
2022/09/21 10:33:50;;;;;;;6.30;5.60;;;;;;;16.12;66.68;101580.25;4964301;29;20031;-78
2022/09/21 10:36:33;;;;;;;5.95;5.35;;;;;;;16.24;63.00;101589.88;4949413;29;20054;-80
2022/09/21 10:39:33;;;;;;;5.28;4.88;;;;;;;16.01;64.32;101579.53;4949142;29;20044;-79
2022/09/21 10:42:02;;;;;;;8.13;5.85;;;;;;;16.07;64.87;101576.78;4943251;29;20043;-78
2022/09/21 10:44:39;;;;;;;5.40;4.90;;;;;;;16.08;64.38;101586.50;4965522;29;20038;-79
2022/09/21 10:47:27;;;;;;;6.43;5.82;;;;;;;16.06;62.36;101580.34;4952287;29;20110;-78
2022/09/21 10:49:54;;;;;;;5.13;4.72;;;;;;;16.10;60.82;101576.72;4964856;29;20103;-78
2022/09/21 10:52:23;;;;;;;7.18;5.20;;;;;;;16.14;62.41;101572.28;4947777;29;20095;-79
2022/09/21 10:54:54;;;;;;;6.25;5.65;;;;;;;15.99;63.12;101573.31;4944897;29;20031;-80
2022/09/21 10:57:23;;;;;;;6.00;5.57;;;;;;;16.00;64.60;101585.72;4946979;28;20052;-79
2022/09/21 10:59:49;;;;;;;6.88;5.22;;;;;;;16.21;64.57;101574.81;4963815;29;20032;-77
2022/09/21 11:02:30;;;;;;;5.63;5.22;;;;;;;16.30;63.36;101578.28;4949899;29;20047;-80
2022/09/21 11:05:18;;;;;;;6.75;5.82;;;;;;;16.48;62.39;101577.13;4958800;29;20036;-79
2022/09/21 11:07:54;;;;;;;5.88;5.25;;;;;;;16.79;60.90;101572.25;4942653;29;20032;-79
2022/09/21 11:10:32;;;;;;;5.40;4.95;;;;;;;17.01;62.13;101573.69;4946844;29;20035;-79
2022/09/21 11:13:24;;;;;;;5.85;5.20;;;;;;;17.17;60.83;101578.78;4953082;29;20042;-78
2022/09/21 11:16:10;;;;;;;5.97;5.57;;;;;;;16.83;59.79;101571.31;4950991;29;20032;-80
2022/09/21 11:19:07;;;;;;;6.47;5.13;;;;;;;16.50;61.73;101564.66;4946329;29;20035;-79
2022/09/21 11:21:43;;;;;;;7.32;5.18;;;;;;;16.50;62.36;101570.88;4944690;29;20071;-79
2022/09/21 11:24:39;;;;;;;5.55;5.05;;;;;;;16.16;61.69;101571.31;4945627;29;20039;-80
2022/09/21 11:27:31;;;;;;;5.50;4.97;;;;;;;15.96;62.63;101568.91;4946368;29;20050;-79
2022/09/21 11:30:06;;;;;;;5.65;5.15;;;;;;;15.74;63.98;101572.72;4943055;29;20044;-79
2022/09/21 11:32:46;;;;;;;5.47;4.93;;;;;;;15.60;64.69;101567.50;4958506;29;20126;-79
2022/09/21 11:35:34;;;;;;;4.97;4.50;;;;;;;15.65;64.30;101568.34;4943174;29;20055;-78
2022/09/21 11:38:16;;;;;;;6.60;6.10;;;;;;;16.05;63.61;101567.03;4958238;29;20043;-79
2022/09/21 11:40:52;;;;;;;6.32;5.72;;;;;;;16.42;63.45;101562.09;4942214;29;20040;-78
2022/09/21 11:43:38;;;;;;;6.68;6.18;;;;;;;16.74;61.65;101560.75;4942525;29;20352;-80
2022/09/21 11:46:20;;;;;;;7.10;6.50;;;;;;;17.11;61.42;101560.19;4958215;29;20036;-79
2022/09/21 11:49:21;;;;;;;7.65;6.95;;;;;;;17.24;61.08;101561.78;4957760;29;20028;-80